createdAt,value
2017-09-17T00:02:18.812Z,90.04
2017-09-17T00:04:46.591Z,89.95
2017-09-17T00:07:14.314Z,90.10
2017-09-17T00:09:42.006Z,89.95
2017-09-17T00:12:09.778Z,89.79
2017-09-17T00:14:37.475Z,89.67
2017-09-17T00:17:05.257Z,89.73
2017-09-17T00:19:32.999Z,89.27
2017-09-17T00:22:00.756Z,89.26
2017-09-17T00:24:28.503Z,89.40
2017-09-17T00:26:56.219Z,89.71
2017-09-17T00:29:24.000Z,89.82
2017-09-17T00:31:51.689Z,90.15
2017-09-17T00:34:19.550Z,90.02
2017-09-17T00:36:47.254Z,90.17
2017-09-17T00:39:14.962Z,89.54
2017-09-17T00:41:42.809Z,90.06
2017-09-17T00:44:10.654Z,90.56
2017-09-17T00:46:38.369Z,90.82
2017-09-17T00:49:06.188Z,90.47
2017-09-17T00:51:34.012Z,90.36
2017-09-17T00:54:01.692Z,90.58
2017-09-17T00:56:29.403Z,90.74
2017-09-17T00:58:57.148Z,90.71
2017-09-17T01:01:24.906Z,90.63
2017-09-17T01:03:52.663Z,90.28
2017-09-17T01:06:20.363Z,90.01
2017-09-17T01:08:48.112Z,89.53
2017-09-17T01:11:15.905Z,89.61
2017-09-17T01:13:43.703Z,89.30
2017-09-17T01:16:11.490Z,89.75
2017-09-17T01:18:39.193Z,89.65
2017-09-17T01:21:07.039Z,90.28
2017-09-17T01:23:34.764Z,90.09
2017-09-17T01:26:02.467Z,89.63
2017-09-17T01:28:30.251Z,89.45
2017-09-17T01:30:57.962Z,89.36
2017-09-17T01:33:25.662Z,89.53
2017-09-17T01:35:53.378Z,89.42
2017-09-17T01:38:21.101Z,90.28
2017-09-17T01:40:48.869Z,89.94
2017-09-17T01:43:16.730Z,89.57
2017-09-17T01:45:44.439Z,89.36
2017-09-17T01:48:12.187Z,89.11
2017-09-17T01:50:39.896Z,89.08
2017-09-17T01:53:07.648Z,89.17
2017-09-17T01:55:35.413Z,89.70
2017-09-17T01:58:03.293Z,89.84
2017-09-17T02:00:31.089Z,89.88
2017-09-17T02:02:58.784Z,90.01
2017-09-17T02:05:26.503Z,90.44
2017-09-17T02:07:54.196Z,90.84
2017-09-17T02:10:21.972Z,90.66
2017-09-17T02:12:49.684Z,90.71
2017-09-17T02:15:17.390Z,90.41
2017-09-17T02:17:45.151Z,90.88
2017-09-17T02:20:12.901Z,91.02
2017-09-17T02:22:40.620Z,90.86
2017-09-17T02:25:08.340Z,90.31
2017-09-17T02:27:36.119Z,90.22
2017-09-17T02:30:03.928Z,90.02
2017-09-17T02:32:31.744Z,90.09
2017-09-17T02:34:59.474Z,90.06
2017-09-17T02:37:27.162Z,89.91
2017-09-17T02:39:54.936Z,89.89
2017-09-17T02:42:22.778Z,90.28
2017-09-17T02:44:50.522Z,90.48
2017-09-17T02:47:18.352Z,89.88
2017-09-17T02:49:46.048Z,89.89
2017-09-17T02:52:13.777Z,89.78
2017-09-17T02:54:41.501Z,89.82
2017-09-17T02:57:09.303Z,90.03
2017-09-17T02:59:37.082Z,90.13
2017-09-17T03:02:04.930Z,90.05
2017-09-17T03:04:32.698Z,90.10
2017-09-17T03:07:00.428Z,90.12
2017-09-17T03:09:28.122Z,90.13
2017-09-17T03:11:55.855Z,89.69
2017-09-17T03:14:23.591Z,89.68
2017-09-17T03:16:51.564Z,89.87
2017-09-17T03:19:19.296Z,90.29
2017-09-17T03:21:46.969Z,90.08
2017-09-17T03:24:14.778Z,89.86
2017-09-17T03:26:42.899Z,90.09
2017-09-17T03:29:10.650Z,90.20
2017-09-17T03:31:38.408Z,90.13
2017-09-17T03:34:06.122Z,90.08
2017-09-17T03:36:33.857Z,90.11
2017-09-17T03:39:01.665Z,89.79
2017-09-17T03:41:29.433Z,90.82
2017-09-17T03:43:57.323Z,91.53
2017-09-17T03:46:25.112Z,91.05
2017-09-17T03:48:52.902Z,90.73
2017-09-17T03:51:21.526Z,90.42
2017-09-17T03:53:49.302Z,90.52
2017-09-17T03:56:16.990Z,90.50
2017-09-17T03:58:45.300Z,90.20
2017-09-17T04:01:13.034Z,90.25
2017-09-17T04:03:40.887Z,90.40
2017-09-17T04:06:08.594Z,90.19
2017-09-17T04:08:36.313Z,90.21
2017-09-17T04:11:04.079Z,90.07
2017-09-17T04:13:31.932Z,90.47
2017-09-17T04:15:59.653Z,90.44
2017-09-17T04:18:27.604Z,90.14
2017-09-17T04:20:55.386Z,90.11
2017-09-17T04:23:23.080Z,90.06
2017-09-17T04:25:50.882Z,90.02
2017-09-17T04:28:18.874Z,90.06
2017-09-17T04:30:46.662Z,89.99
2017-09-17T04:33:14.445Z,90.02
2017-09-17T04:35:42.215Z,89.81
2017-09-17T04:38:09.928Z,90.13
2017-09-17T04:40:37.714Z,90.21
2017-09-17T04:43:05.419Z,91.43
2017-09-17T04:45:33.184Z,91.08
2017-09-17T04:48:00.891Z,91.03
2017-09-17T04:50:28.632Z,90.91
2017-09-17T04:52:56.347Z,91.40
2017-09-17T04:55:24.071Z,91.61
2017-09-17T04:57:51.936Z,91.43
2017-09-17T05:00:19.634Z,91.14
2017-09-17T05:02:47.345Z,91.01
2017-09-17T05:05:15.104Z,91.42
2017-09-17T05:07:42.863Z,91.46
2017-09-17T05:10:10.598Z,91.11
2017-09-17T05:12:39.352Z,91.08
2017-09-17T05:15:07.297Z,91.58
2017-09-17T05:17:34.985Z,92.38
2017-09-17T05:20:02.724Z,92.12
2017-09-17T05:22:30.561Z,92.48
2017-09-17T05:24:58.302Z,92.68
2017-09-17T05:27:26.029Z,92.40
2017-09-17T05:29:53.738Z,91.96
2017-09-17T05:32:21.498Z,90.97
2017-09-17T05:34:49.208Z,91.47
2017-09-17T05:37:16.987Z,91.50
2017-09-17T05:39:44.729Z,91.86
2017-09-17T05:42:12.490Z,92.08
2017-09-17T05:44:40.207Z,91.88
2017-09-17T05:47:07.927Z,91.61
2017-09-17T05:49:35.654Z,91.30
2017-09-17T05:52:03.426Z,91.16
2017-09-17T05:54:31.125Z,91.50
2017-09-17T05:56:59.738Z,91.60
2017-09-17T05:59:27.485Z,91.64
2017-09-17T06:01:55.294Z,91.01
2017-09-17T06:04:23.038Z,91.02
2017-09-17T06:06:50.808Z,91.04
2017-09-17T06:09:18.594Z,90.33
2017-09-17T06:11:46.323Z,90.43
2017-09-17T06:14:14.111Z,90.76
2017-09-17T06:16:41.864Z,90.91
2017-09-17T06:19:09.567Z,90.75
2017-09-17T06:21:37.324Z,90.30
2017-09-17T06:24:05.046Z,91.59
2017-09-17T06:26:34.085Z,90.48
2017-09-17T06:29:01.835Z,89.39
2017-09-17T06:31:29.715Z,89.85
2017-09-17T06:33:57.566Z,89.66
2017-09-17T06:36:26.755Z,88.64
2017-09-17T06:38:54.458Z,89.07
2017-09-17T06:41:22.308Z,89.71
2017-09-17T06:43:50.151Z,89.48
2017-09-17T06:46:17.992Z,89.79
2017-09-17T06:48:45.968Z,90.75
2017-09-17T06:51:13.954Z,91.25
2017-09-17T06:53:42.337Z,90.99
2017-09-17T06:56:11.297Z,90.80
2017-09-17T06:58:40.425Z,90.54
2017-09-17T07:01:08.643Z,90.60
2017-09-17T07:03:37.667Z,90.59
2017-09-17T07:06:05.647Z,90.67
2017-09-17T07:08:33.549Z,90.36
2017-09-17T07:11:01.365Z,89.49
2017-09-17T07:13:29.152Z,89.13
2017-09-17T07:15:56.994Z,89.06
2017-09-17T07:18:24.823Z,89.29
2017-09-17T07:20:52.831Z,89.85
2017-09-17T07:23:20.870Z,89.69
2017-09-17T07:25:48.644Z,89.37
2017-09-17T07:28:16.404Z,89.48
2017-09-17T07:30:44.143Z,89.70
2017-09-17T07:33:11.981Z,90.45
2017-09-17T07:35:39.751Z,90.48
2017-09-17T07:38:07.535Z,90.52
2017-09-17T07:40:35.281Z,89.91
2017-09-17T07:43:03.011Z,89.91
2017-09-17T07:45:30.780Z,89.06
2017-09-17T07:47:58.553Z,89.68
2017-09-17T07:50:26.480Z,90.05
2017-09-17T07:52:54.341Z,89.61
2017-09-17T07:55:22.257Z,89.72
2017-09-17T07:57:50.053Z,89.85
2017-09-17T08:00:17.801Z,90.77
2017-09-17T08:02:45.589Z,91.12
2017-09-17T08:05:13.656Z,91.32
2017-09-17T08:07:41.410Z,90.74
2017-09-17T08:10:09.185Z,90.04
2017-09-17T08:12:37.012Z,90.31
2017-09-17T08:15:05.010Z,90.46
2017-09-17T08:17:33.375Z,90.62
2017-09-17T08:20:01.284Z,88.79
2017-09-17T08:22:29.123Z,88.30
2017-09-17T08:24:57.051Z,86.89
2017-09-17T08:27:24.884Z,86.13
2017-09-17T08:29:52.722Z,87.72
2017-09-17T08:32:20.512Z,89.28
2017-09-17T08:34:48.353Z,88.65
2017-09-17T08:37:17.109Z,89.04
2017-09-17T08:39:46.363Z,89.03
2017-09-17T08:42:14.103Z,87.99
2017-09-17T08:44:41.922Z,88.52
2017-09-17T08:47:09.685Z,87.55
2017-09-17T08:49:37.471Z,87.38
2017-09-17T08:52:05.252Z,87.45
2017-09-17T08:54:33.041Z,87.34
2017-09-17T08:57:00.870Z,87.38
2017-09-17T08:59:29.852Z,87.56
2017-09-17T09:01:57.647Z,86.62
2017-09-17T09:04:25.496Z,87.03
2017-09-17T09:06:53.309Z,85.81
2017-09-17T09:09:21.499Z,87.65
2017-09-17T09:11:49.225Z,86.14
2017-09-17T09:14:17.064Z,85.60
2017-09-17T09:16:44.889Z,84.23
2017-09-17T09:19:12.786Z,84.53
2017-09-17T09:21:40.679Z,85.64
2017-09-17T09:24:09.136Z,84.55
2017-09-17T09:26:36.935Z,85.31
2017-09-17T09:29:04.927Z,84.76
2017-09-17T09:31:32.683Z,85.09
2017-09-17T09:34:00.422Z,84.74
2017-09-17T09:36:28.189Z,85.58
2017-09-17T09:38:56.004Z,84.77
2017-09-17T09:41:23.715Z,84.71
2017-09-17T09:43:51.624Z,83.93
2017-09-17T09:46:19.417Z,85.53
2017-09-17T09:48:47.194Z,85.52
2017-09-17T09:51:15.079Z,83.86
2017-09-17T09:53:44.240Z,84.92
2017-09-17T09:56:11.992Z,85.41
2017-09-17T09:58:39.887Z,83.61
2017-09-17T10:01:07.673Z,84.57
2017-09-17T10:03:35.456Z,86.05
2017-09-17T10:06:03.170Z,84.88
2017-09-17T10:08:32.237Z,86.25
2017-09-17T10:11:00.053Z,86.16
2017-09-17T10:13:27.874Z,87.04
2017-09-17T10:15:55.685Z,86.01
2017-09-17T10:18:23.471Z,85.54
2017-09-17T10:20:51.313Z,86.03
2017-09-17T10:23:19.120Z,85.84
2017-09-17T10:25:47.723Z,86.34
2017-09-17T10:28:17.044Z,86.16
2017-09-17T10:30:45.124Z,86.65
2017-09-17T10:33:14.939Z,86.35
2017-09-17T10:35:42.850Z,85.46
2017-09-17T10:38:11.544Z,84.76
2017-09-17T10:40:39.297Z,85.51
2017-09-17T10:43:07.566Z,85.31
2017-09-17T10:45:35.310Z,85.66
2017-09-17T10:48:03.080Z,83.44
2017-09-17T10:50:30.887Z,84.73
2017-09-17T10:52:58.798Z,84.87
2017-09-17T10:55:26.611Z,83.90
2017-09-17T10:57:54.640Z,84.51
2017-09-17T11:00:22.422Z,84.04
2017-09-17T11:02:50.208Z,84.58
2017-09-17T11:05:18.677Z,83.87
2017-09-17T11:07:46.428Z,85.37
2017-09-17T11:10:15.447Z,85.81
2017-09-17T11:12:43.286Z,86.12
2017-09-17T11:15:11.520Z,85.87
2017-09-17T11:17:39.350Z,86.55
2017-09-17T11:20:07.270Z,85.04
2017-09-17T11:22:35.202Z,85.08
2017-09-17T11:25:02.902Z,86.00
2017-09-17T11:27:31.466Z,86.26
2017-09-17T11:29:59.341Z,86.59
2017-09-17T11:32:27.228Z,87.22
2017-09-17T11:34:55.075Z,87.14
2017-09-17T11:37:22.993Z,87.12
2017-09-17T11:39:50.854Z,87.34
2017-09-17T11:42:18.737Z,87.45
2017-09-17T11:44:47.455Z,86.22
2017-09-17T11:47:15.216Z,85.62
2017-09-17T11:49:43.051Z,85.56
2017-09-17T11:52:10.870Z,86.73
2017-09-17T11:54:38.626Z,86.99
2017-09-17T11:57:06.812Z,85.35
2017-09-17T11:59:34.619Z,86.49
2017-09-17T12:02:02.468Z,81.95
2017-09-17T12:04:30.862Z,84.23
2017-09-17T12:06:58.617Z,84.19
2017-09-17T12:09:26.371Z,84.18
2017-09-17T12:11:54.858Z,84.73
2017-09-17T12:14:22.965Z,84.19
2017-09-17T12:16:50.860Z,84.29
2017-09-17T12:19:18.615Z,83.98
2017-09-17T12:21:46.438Z,84.00
2017-09-17T12:24:14.176Z,84.41
2017-09-17T12:26:41.966Z,85.75
2017-09-17T12:29:09.811Z,84.82
2017-09-17T12:31:37.605Z,86.25
2017-09-17T12:34:05.466Z,83.61
2017-09-17T12:36:33.181Z,84.82
2017-09-17T12:39:01.019Z,85.55
2017-09-17T12:41:28.740Z,86.33
2017-09-17T12:43:56.577Z,87.29
2017-09-17T12:46:24.480Z,87.27
2017-09-17T12:48:52.380Z,87.02
2017-09-17T12:51:20.347Z,87.20
2017-09-17T12:53:48.121Z,87.55
2017-09-17T12:56:15.875Z,87.07
2017-09-17T12:58:43.625Z,87.21
2017-09-17T13:01:11.403Z,87.07
2017-09-17T13:03:39.258Z,87.79
2017-09-17T13:06:07.140Z,87.02
2017-09-17T13:08:34.906Z,87.40
2017-09-17T13:11:02.693Z,85.13
2017-09-17T13:13:30.499Z,85.74
2017-09-17T13:15:58.234Z,84.88
2017-09-17T13:18:25.936Z,84.83
2017-09-17T13:20:53.736Z,85.26
2017-09-17T13:23:21.495Z,85.57
2017-09-17T13:25:49.249Z,85.47
2017-09-17T13:28:17.051Z,84.22
2017-09-17T13:30:44.915Z,84.75
2017-09-17T13:33:12.779Z,85.25
2017-09-17T13:35:40.588Z,86.80
2017-09-17T13:38:08.346Z,87.21
2017-09-17T13:40:36.899Z,87.23
2017-09-17T13:43:04.795Z,88.09
2017-09-17T13:45:32.745Z,88.00
2017-09-17T13:48:00.571Z,87.54
2017-09-17T13:50:28.364Z,86.72
2017-09-17T13:52:56.109Z,86.91
2017-09-17T13:55:23.995Z,87.06
2017-09-17T13:57:51.841Z,86.77
2017-09-17T14:00:19.700Z,86.89
2017-09-17T14:02:50.634Z,87.60
2017-09-17T14:05:24.223Z,87.07
2017-09-17T14:07:57.594Z,87.18
2017-09-17T14:10:28.955Z,84.86
2017-09-17T14:12:56.796Z,85.51
2017-09-17T14:15:24.709Z,86.71
2017-09-17T14:17:52.537Z,86.18
2017-09-17T14:20:20.402Z,86.25
2017-09-17T14:22:48.219Z,85.12
2017-09-17T14:25:16.125Z,85.83
2017-09-17T14:27:44.077Z,85.70
2017-09-17T14:30:12.354Z,85.21
2017-09-17T14:32:40.414Z,86.01
2017-09-17T14:35:08.712Z,86.22
2017-09-17T14:37:37.240Z,86.83
2017-09-17T14:40:05.150Z,87.23
2017-09-17T14:42:32.950Z,83.97
2017-09-17T14:45:00.938Z,84.42
2017-09-17T14:47:28.749Z,85.83
2017-09-17T14:49:56.600Z,85.53
2017-09-17T14:52:24.764Z,84.91
2017-09-17T14:54:52.535Z,83.16
2017-09-17T14:57:20.878Z,81.74
2017-09-17T14:59:48.684Z,82.94
2017-09-17T15:02:16.565Z,84.78
2017-09-17T15:04:44.445Z,84.15
2017-09-17T15:07:12.842Z,85.70
2017-09-17T15:09:40.746Z,84.62
2017-09-17T15:12:08.617Z,83.75
2017-09-17T15:14:36.376Z,85.76
2017-09-17T15:17:04.143Z,86.41
2017-09-17T15:19:31.934Z,86.97
2017-09-17T15:21:59.714Z,85.04
2017-09-17T15:24:28.505Z,86.96
2017-09-17T15:26:56.273Z,87.75
2017-09-17T15:29:24.133Z,87.85
2017-09-17T15:31:52.040Z,87.45
2017-09-17T15:34:19.812Z,87.47
2017-09-17T15:36:47.571Z,87.90
2017-09-17T15:39:16.583Z,88.18
2017-09-17T15:41:44.377Z,89.10
2017-09-17T15:44:12.215Z,88.52
2017-09-17T15:46:41.195Z,88.10
2017-09-17T15:49:09.023Z,87.73
2017-09-17T15:51:36.889Z,88.08
2017-09-17T15:54:04.982Z,88.14
2017-09-17T15:56:32.790Z,88.06
2017-09-17T15:59:00.660Z,87.94
2017-09-17T16:01:28.507Z,88.90
2017-09-17T16:03:57.545Z,88.76
2017-09-17T16:06:25.444Z,88.90
2017-09-17T16:08:53.249Z,89.39
2017-09-17T16:11:21.048Z,89.59
2017-09-17T16:13:49.572Z,90.41
2017-09-17T16:16:17.431Z,90.05
2017-09-17T16:18:45.236Z,89.60
2017-09-17T16:21:13.058Z,89.46
2017-09-17T16:23:40.991Z,88.91
2017-09-17T16:26:08.757Z,87.77
2017-09-17T16:28:37.341Z,87.16
2017-09-17T16:31:05.116Z,86.25
2017-09-17T16:33:32.999Z,87.31
2017-09-17T16:36:00.883Z,88.64
2017-09-17T16:38:28.762Z,88.47
2017-09-17T16:40:56.571Z,88.50
2017-09-17T16:43:24.409Z,88.49
2017-09-17T16:45:52.189Z,89.02
2017-09-17T16:48:19.980Z,88.78
2017-09-17T16:50:47.751Z,88.19
2017-09-17T16:53:16.087Z,88.24
2017-09-17T16:55:44.886Z,89.52
2017-09-17T16:58:12.753Z,89.64
2017-09-17T17:00:40.544Z,89.13
2017-09-17T17:03:08.319Z,90.45
2017-09-17T17:05:37.146Z,90.23
2017-09-17T17:08:05.043Z,90.70
2017-09-17T17:10:32.943Z,90.67
2017-09-17T17:13:00.822Z,90.64
2017-09-17T17:15:28.610Z,90.32
2017-09-17T17:17:56.481Z,90.22
2017-09-17T17:20:24.507Z,89.91
2017-09-17T17:22:52.282Z,89.34
2017-09-17T17:25:20.229Z,89.46
2017-09-17T17:27:47.997Z,89.49
2017-09-17T17:30:15.848Z,89.49
2017-09-17T17:32:43.650Z,89.63
2017-09-17T17:35:11.505Z,89.18
2017-09-17T17:37:39.377Z,88.98
2017-09-17T17:40:07.269Z,90.54
2017-09-17T17:42:35.050Z,89.73
2017-09-17T17:45:03.032Z,89.13
2017-09-17T17:47:30.803Z,89.03
2017-09-17T17:49:58.588Z,88.83
2017-09-17T17:52:26.368Z,89.04
2017-09-17T17:54:54.190Z,89.29
2017-09-17T17:57:22.391Z,89.38
2017-09-17T17:59:50.168Z,89.53
2017-09-17T18:02:17.909Z,90.86
2017-09-17T18:04:45.747Z,90.52
2017-09-17T18:07:14.383Z,90.39
2017-09-17T18:09:42.196Z,90.39
2017-09-17T18:12:09.913Z,90.23
2017-09-17T18:14:37.674Z,90.16
2017-09-17T18:17:06.633Z,90.04
2017-09-17T18:19:34.555Z,90.50
2017-09-17T18:22:02.493Z,91.06
2017-09-17T18:24:30.353Z,90.61
2017-09-17T18:26:58.189Z,88.44
2017-09-17T18:29:26.373Z,88.43
2017-09-17T18:31:54.224Z,88.53
2017-09-17T18:34:22.825Z,88.50
2017-09-17T18:36:50.662Z,87.79
2017-09-17T18:39:18.574Z,88.09
2017-09-17T18:41:46.636Z,89.32
2017-09-17T18:44:16.363Z,89.88
2017-09-17T18:46:44.132Z,89.62
2017-09-17T18:49:11.907Z,89.80
2017-09-17T18:51:39.689Z,90.01
2017-09-17T18:54:07.516Z,89.31
2017-09-17T18:56:36.470Z,89.50
2017-09-17T18:59:04.281Z,88.68
2017-09-17T19:01:32.119Z,88.93
2017-09-17T19:03:59.931Z,89.76
2017-09-17T19:06:27.702Z,89.80
2017-09-17T19:08:55.593Z,89.91
2017-09-17T19:11:23.468Z,90.20
2017-09-17T19:13:51.266Z,89.61
2017-09-17T19:16:19.122Z,89.26
2017-09-17T19:18:47.590Z,88.89
2017-09-17T19:21:15.464Z,89.63
2017-09-17T19:23:43.233Z,89.35
2017-09-17T19:26:11.081Z,89.10
2017-09-17T19:28:38.867Z,88.99
2017-09-17T19:31:06.677Z,89.26
2017-09-17T19:33:34.478Z,88.93
2017-09-17T19:36:03.041Z,88.97
2017-09-17T19:38:30.946Z,88.68
2017-09-17T19:40:58.847Z,88.55
2017-09-17T19:43:26.746Z,88.73
2017-09-17T19:45:54.563Z,88.88
2017-09-17T19:48:22.385Z,88.80
2017-09-17T19:50:50.182Z,88.83
2017-09-17T19:53:17.983Z,89.03
2017-09-17T19:55:45.778Z,89.65
2017-09-17T19:58:13.550Z,89.82
2017-09-17T20:00:41.483Z,89.48
2017-09-17T20:03:09.350Z,89.77
2017-09-17T20:05:37.186Z,89.67
2017-09-17T20:08:04.980Z,89.44
2017-09-17T20:10:33.797Z,89.47
2017-09-17T20:13:01.954Z,89.66
2017-09-17T20:15:30.139Z,88.95
2017-09-17T20:17:57.866Z,89.85
2017-09-17T20:20:26.191Z,89.61
2017-09-17T20:22:54.573Z,89.10
2017-09-17T20:25:22.364Z,89.14
2017-09-17T20:27:50.164Z,88.35
2017-09-17T20:30:18.988Z,89.94
2017-09-17T20:32:46.678Z,88.95
2017-09-17T20:35:14.458Z,88.81
2017-09-17T20:37:42.146Z,88.92
2017-09-17T20:40:09.930Z,89.10
2017-09-17T20:42:37.675Z,88.77
2017-09-17T20:45:05.431Z,88.70
2017-09-17T20:47:33.199Z,88.73
2017-09-17T20:50:01.850Z,89.66
2017-09-17T20:52:29.561Z,90.48
2017-09-17T20:54:57.536Z,90.15
2017-09-17T20:57:25.329Z,90.30
2017-09-17T20:59:53.053Z,90.76
2017-09-17T21:02:20.839Z,90.29
2017-09-17T21:04:48.647Z,90.06
2017-09-17T21:07:16.465Z,89.65
2017-09-17T21:09:44.262Z,89.71
2017-09-17T21:12:12.035Z,89.35
2017-09-17T21:14:39.903Z,90.75
2017-09-17T21:17:07.688Z,89.73
2017-09-17T21:19:35.424Z,90.00
2017-09-17T21:22:03.107Z,90.37
2017-09-17T21:24:31.015Z,90.26
2017-09-17T21:26:58.789Z,89.51
2017-09-17T21:29:26.545Z,89.75
2017-09-17T21:31:54.254Z,89.90
2017-09-17T21:34:22.014Z,89.55
2017-09-17T21:36:49.737Z,88.86
2017-09-17T21:39:17.609Z,89.20
2017-09-17T21:41:45.632Z,89.93
2017-09-17T21:44:13.517Z,89.91
2017-09-17T21:46:41.205Z,90.12
2017-09-17T21:49:08.963Z,90.62
2017-09-17T21:51:36.740Z,89.87
2017-09-17T21:54:04.553Z,89.90
2017-09-17T21:56:32.265Z,89.75
2017-09-17T21:59:00.037Z,89.62
2017-09-17T22:01:27.740Z,89.14
2017-09-17T22:03:55.535Z,89.19
2017-09-17T22:06:23.247Z,89.23
2017-09-17T22:08:50.935Z,89.13
2017-09-17T22:11:18.780Z,89.05
2017-09-17T22:13:46.479Z,90.32
2017-09-17T22:16:14.423Z,90.21
2017-09-17T22:18:42.161Z,89.10
2017-09-17T22:21:09.896Z,88.80
2017-09-17T22:23:37.660Z,88.82
2017-09-17T22:26:05.458Z,88.82
2017-09-17T22:28:33.217Z,88.78
2017-09-17T22:31:00.943Z,88.95
2017-09-17T22:33:28.640Z,88.69
2017-09-17T22:35:56.364Z,88.79
2017-09-17T22:38:24.052Z,88.72
2017-09-17T22:40:51.826Z,88.94
2017-09-17T22:43:19.552Z,88.79
2017-09-17T22:45:47.275Z,89.18
2017-09-17T22:48:15.126Z,89.44
2017-09-17T22:50:42.860Z,89.69
2017-09-17T22:53:10.540Z,89.62
2017-09-17T22:55:38.350Z,90.42
2017-09-17T22:58:06.054Z,91.06
2017-09-17T23:00:33.782Z,89.98
2017-09-17T23:03:01.516Z,89.57
2017-09-17T23:05:29.232Z,89.72
2017-09-17T23:07:56.995Z,89.26
2017-09-17T23:10:24.692Z,89.66
2017-09-17T23:12:52.436Z,89.75
2017-09-17T23:15:20.166Z,89.65
2017-09-17T23:17:47.946Z,89.88
2017-09-17T23:20:15.654Z,90.57
2017-09-17T23:22:43.462Z,90.03
2017-09-17T23:25:11.158Z,89.88
2017-09-17T23:27:38.895Z,90.74
2017-09-17T23:30:06.631Z,91.01
2017-09-17T23:32:34.397Z,91.66
2017-09-17T23:35:02.101Z,91.13
2017-09-17T23:37:29.823Z,90.28
2017-09-17T23:39:57.540Z,91.31
2017-09-17T23:42:25.305Z,91.31
2017-09-17T23:44:53.044Z,91.90
2017-09-17T23:47:20.753Z,93.07
2017-09-17T23:49:48.512Z,93.32
2017-09-17T23:52:16.314Z,92.95
2017-09-17T23:54:44.026Z,92.06
2017-09-17T23:57:11.792Z,91.43
2017-09-17T23:59:39.540Z,91.02
